Time;durP1;ratioP1;P1;durP2;ratioP2;P2;SDS_P1;SDS_P2;PMS_P1;PMS_P2;Temp;Humidity;BMP_temperature;BMP_pressure;BME280_temperature;BME280_humidity;BME280_pressure;Samples;Min_cycle;Max_cycle;Signal;HPM_P1;HPM_P2
2021/11/02 03:55:00;;;;;;;27.95;17.63;;;;;;;;;;5032547;28;20419;-74
2021/11/02 03:57:53;;;;;;;26.20;17.33;;;;;;;;;;5031813;28;20056;-74
2021/11/02 07:19:31;;;;;;;32.25;18.95;;;;;;;;;;5030327;28;20076;-76
2021/11/02 07:22:11;;;;;;;29.08;19.08;;;;;;;;;;5031931;28;20057;-75
2021/11/02 07:25:06;;;;;;;33.20;22.05;;;;;;;;;;5033009;28;20038;-75
2021/11/02 08:48:00;;;;;;;27.92;18.13;;;;;;;;;;5031295;28;20037;-77
2021/11/02 08:50:29;;;;;;;26.77;15.95;;;;;;;;;;5027104;28;20411;-76
2021/11/02 09:09:49;;;;;;;30.27;18.23;;;;;;;;;;5030357;28;20556;-79
2021/11/02 09:12:52;;;;;;;29.80;17.95;;;;;;;;;;5023665;28;20072;-78
2021/11/02 09:15:45;;;;;;;31.38;18.20;;;;;;;;;;5020662;28;20045;-78
2021/11/02 09:18:12;;;;;;;25.52;17.42;;;;;;;;;;5033800;28;20062;-77
2021/11/02 09:20:39;;;;;;;29.77;20.40;;;;;;;;;;5036909;28;20045;-76
2021/11/02 09:23:39;;;;;;;30.77;18.15;;;;;;;;;;5023940;28;20042;-76
2021/11/02 09:26:06;;;;;;;31.15;19.05;;;;;;;;;;5017443;28;20069;-78
2021/11/02 09:28:37;;;;;;;27.35;17.20;;;;;;;;;;5020367;28;20044;-79
2021/11/02 09:31:43;;;;;;;28.05;19.23;;;;;;;;;;5009109;28;20045;-78
2021/11/02 09:34:10;;;;;;;30.00;19.42;;;;;;;;;;5002569;28;20053;-76
2021/11/02 09:36:44;;;;;;;36.05;21.88;;;;;;;;;;5003534;28;20049;-78
2021/11/02 09:39:11;;;;;;;32.72;19.42;;;;;;;;;;5010413;28;20540;-78
2021/11/02 09:42:29;;;;;;;32.03;18.70;;;;;;;;;;5030115;28;20414;-77
2021/11/02 09:45:32;;;;;;;32.92;20.85;;;;;;;;;;4987481;28;20072;-78
2021/11/02 09:48:42;;;;;;;35.75;22.00;;;;;;;;;;5030145;28;20041;-77
2021/11/02 10:08:39;;;;;;;28.50;20.17;;;;;;;;;;5030875;28;20525;-79
2021/11/02 10:11:42;;;;;;;25.85;18.25;;;;;;;;;;5026336;28;20049;-77
2021/11/02 10:14:14;;;;;;;30.65;19.15;;;;;;;;;;5029598;28;20100;-77
2021/11/02 10:17:00;;;;;;;25.58;17.58;;;;;;;;;;5025639;28;20572;-78
2021/11/02 10:19:47;;;;;;;30.67;20.40;;;;;;;;;;5037798;28;20080;-77
2021/11/02 10:32:39;;;;;;;26.80;19.25;;;;;;;;;;5031122;28;20052;-78
2021/11/02 10:35:29;;;;;;;33.25;18.35;;;;;;;;;;5028692;28;20049;-77
2021/11/02 10:38:06;;;;;;;26.00;19.20;;;;;;;;;;5029231;28;20033;-78
2021/11/02 10:40:55;;;;;;;24.90;17.02;;;;;;;;;;5027977;28;20099;-77
2021/11/02 10:43:26;;;;;;;24.75;18.00;;;;;;;;;;5012069;28;20049;-77
2021/11/02 10:45:56;;;;;;;30.20;17.15;;;;;;;;;;5011425;28;20490;-77
2021/11/02 10:48:30;;;;;;;25.98;17.55;;;;;;;;;;5028499;28;20056;-78
2021/11/02 10:51:35;;;;;;;24.92;17.67;;;;;;;;;;5029406;28;20049;-77
2021/11/02 10:54:15;;;;;;;26.02;16.98;;;;;;;;;;5030454;28;20421;-77
2021/11/02 10:57:02;;;;;;;27.83;19.20;;;;;;;;;;5029669;28;20136;-80
2021/11/02 10:59:30;;;;;;;25.20;17.13;;;;;;;;;;5013203;28;20139;-78
2021/11/02 11:02:30;;;;;;;29.33;18.90;;;;;;;;;;5029181;28;20494;-78
2021/11/02 11:05:01;;;;;;;27.05;18.58;;;;;;;;;;5028979;28;20056;-78
2021/11/02 11:07:44;;;;;;;26.92;18.00;;;;;;;;;;5029730;28;20107;-77
2021/11/02 11:10:12;;;;;;;32.55;19.70;;;;;;;;;;5028940;28;20564;-77
2021/11/02 11:12:55;;;;;;;31.08;21.25;;;;;;;;;;5029281;28;20049;-77
2021/11/02 11:15:21;;;;;;;31.30;21.20;;;;;;;;;;5029059;28;20084;-78
2021/11/02 11:18:08;;;;;;;29.48;19.08;;;;;;;;;;5028956;28;20135;-78
2021/11/02 11:20:37;;;;;;;33.15;21.25;;;;;;;;;;5009629;28;20097;-79
2021/11/02 11:29:54;;;;;;;27.83;19.70;;;;;;;;;;5010477;28;20064;-77
2021/11/02 11:32:36;;;;;;;34.22;23.98;;;;;;;;;;5009116;28;20550;-77
2021/11/02 11:35:02;;;;;;;40.00;25.30;;;;;;;;;;5009243;28;20054;-76
2021/11/02 11:37:37;;;;;;;40.22;24.50;;;;;;;;;;5012598;28;20069;-77
2021/11/02 11:40:24;;;;;;;42.00;24.83;;;;;;;;;;5013319;28;20513;-76
2021/11/02 11:42:52;;;;;;;42.90;27.00;;;;;;;;;;5009853;28;20125;-77
2021/11/02 11:45:24;;;;;;;37.28;22.58;;;;;;;;;;5009341;28;20626;-79
2021/11/02 11:48:08;;;;;;;36.97;23.95;;;;;;;;;;4993786;28;20049;-77
2021/11/02 11:50:38;;;;;;;49.58;27.08;;;;;;;;;;5010953;28;20045;-77
2021/11/02 11:53:04;;;;;;;39.90;23.75;;;;;;;;;;5012285;28;20407;-77
2021/11/02 11:55:39;;;;;;;34.05;21.98;;;;;;;;;;5014098;28;20095;-78
2021/11/02 11:58:14;;;;;;;33.45;22.83;;;;;;;;;;5011845;28;20044;-76
2021/11/02 12:01:23;;;;;;;33.63;22.98;;;;;;;;;;5012334;28;20144;-77
2021/11/02 12:04:40;;;;;;;32.92;22.77;;;;;;;;;;5011926;28;20069;-77
2021/11/02 12:07:18;;;;;;;32.03;22.65;;;;;;;;;;5010866;28;20564;-77
2021/11/02 12:09:45;;;;;;;36.60;23.27;;;;;;;;;;5011976;28;20037;-78
2021/11/02 12:19:16;;;;;;;33.67;23.38;;;;;;;;;;5013418;28;20563;-78
2021/11/02 12:21:44;;;;;;;33.88;23.05;;;;;;;;;;5012082;28;20050;-78
2021/11/02 12:24:15;;;;;;;37.22;23.05;;;;;;;;;;5010979;28;20470;-79
2021/11/02 12:26:49;;;;;;;34.13;22.02;;;;;;;;;;5011736;28;20116;-77
2021/11/02 12:29:21;;;;;;;35.53;23.65;;;;;;;;;;5011488;28;20042;-79
2021/11/02 12:35:42;;;;;;;37.05;24.67;;;;;;;;;;5010445;28;20461;-79
2021/11/02 12:38:09;;;;;;;38.08;23.90;;;;;;;;;;5011049;28;20060;-78
2021/11/02 12:40:37;;;;;;;37.42;23.60;;;;;;;;;;5011886;28;20046;-78
2021/11/02 12:43:04;;;;;;;39.13;24.50;;;;;;;;;;5011795;28;20496;-77
2021/11/02 12:45:39;;;;;;;40.00;24.42;;;;;;;;;;5011482;28;20133;-79
2021/11/02 12:48:09;;;;;;;37.75;23.88;;;;;;;;;;5010941;28;20499;-77
2021/11/02 12:50:37;;;;;;;38.00;23.85;;;;;;;;;;5009365;28;20046;-78
2021/11/02 12:59:58;;;;;;;39.03;25.00;;;;;;;;;;5011171;28;20092;-77
2021/11/02 13:27:27;;;;;;;52.70;28.55;;;;;;;;;;4990069;28;20101;-79
2021/11/02 13:29:53;;;;;;;47.80;27.85;;;;;;;;;;4973182;28;20054;-78
2021/11/02 13:32:19;;;;;;;47.15;27.98;;;;;;;;;;4992035;28;20471;-77
2021/11/02 13:34:44;;;;;;;42.75;26.38;;;;;;;;;;4974433;28;20522;-77
2021/11/02 13:37:15;;;;;;;44.30;27.05;;;;;;;;;;4989944;28;20527;-77
2021/11/02 13:40:03;;;;;;;51.08;30.65;;;;;;;;;;4974195;28;20101;-77
2021/11/02 13:45:51;;;;;;;42.97;28.90;;;;;;;;;;4991859;28;20099;-77
2021/11/02 13:48:17;;;;;;;52.63;31.50;;;;;;;;;;4992277;28;20506;-77
2021/11/02 13:50:45;;;;;;;46.28;27.88;;;;;;;;;;4990468;28;20054;-77
2021/11/02 13:53:27;;;;;;;54.13;33.40;;;;;;;;;;4974008;28;20141;-78
2021/11/02 13:55:53;;;;;;;50.63;30.33;;;;;;;;;;4974260;28;20071;-77
2021/11/02 13:58:19;;;;;;;56.03;33.67;;;;;;;;;;4973441;28;20550;-78
2021/11/02 14:00:46;;;;;;;44.47;26.38;;;;;;;;;;4974182;28;20522;-77
2021/11/02 14:10:28;;;;;;;41.33;25.92;;;;;;;;;;4992631;28;20077;-76
2021/11/02 14:13:45;;;;;;;34.90;24.63;;;;;;;;;;4974113;28;20427;-78
2021/11/02 14:16:15;;;;;;;37.15;24.35;;;;;;;;;;4969084;28;20575;-78
2021/11/02 14:18:42;;;;;;;42.33;26.15;;;;;;;;;;4974269;28;20508;-78
2021/11/02 14:24:46;;;;;;;40.78;25.35;;;;;;;;;;4910923;29;20100;-77
2021/11/02 14:27:20;;;;;;;44.80;25.38;;;;;;;;;;4910409;29;20056;-77
2021/11/02 14:29:47;;;;;;;34.35;21.27;;;;;;;;;;4911517;29;20050;-77
2021/11/02 14:32:35;;;;;;;39.63;23.33;;;;;;;;;;4912006;29;20482;-76
2021/11/02 14:35:03;;;;;;;45.05;25.55;;;;;;;;;;4911856;29;20099;-76
2021/11/02 14:37:47;;;;;;;46.63;25.83;;;;;;;;;;4911902;29;20051;-76
2021/11/02 14:40:30;;;;;;;37.05;24.75;;;;;;;;;;4990333;28;20237;-76
2021/11/02 14:43:17;;;;;;;35.47;22.70;;;;;;;;;;4990693;28;20473;-77
2021/11/02 14:45:58;;;;;;;33.95;22.13;;;;;;;;;;4991471;28;20408;-77
2021/11/02 14:48:29;;;;;;;35.17;22.83;;;;;;;;;;4973352;28;20105;-78
2021/11/02 14:54:45;;;;;;;29.65;20.58;;;;;;;;;;4991709;28;20412;-79
2021/11/02 14:57:20;;;;;;;32.08;21.58;;;;;;;;;;4990084;28;20419;-77
2021/11/02 14:59:55;;;;;;;32.83;21.05;;;;;;;;;;4972909;28;20081;-77
2021/11/02 15:05:42;;;;;;;36.83;23.50;;;;;;;;;;4971493;28;20142;-77
2021/11/02 15:08:13;;;;;;;28.02;19.80;;;;;;;;;;4968475;28;20145;-77
2021/11/02 15:10:43;;;;;;;32.10;20.27;;;;;;;;;;4969933;28;20054;-78
2021/11/02 15:13:26;;;;;;;36.03;21.10;;;;;;;;;;4993559;28;20422;-78
2021/11/02 15:15:55;;;;;;;31.98;21.92;;;;;;;;;;4972601;28;20644;-79
2021/11/02 15:18:21;;;;;;;40.40;24.15;;;;;;;;;;4993135;28;20042;-76
2021/11/02 15:20:48;;;;;;;35.15;23.90;;;;;;;;;;4992297;28;20165;-76
2021/11/02 15:23:45;;;;;;;33.13;22.77;;;;;;;;;;4977836;28;20105;-76
2021/11/02 15:26:13;;;;;;;27.40;19.85;;;;;;;;;;4994269;28;20046;-78
2021/11/02 15:28:47;;;;;;;35.97;22.83;;;;;;;;;;4977163;28;20043;-77
2021/11/02 15:31:18;;;;;;;32.35;24.10;;;;;;;;;;4970380;28;20089;-78
2021/11/02 15:33:44;;;;;;;29.80;20.30;;;;;;;;;;4957504;28;20050;-79
2021/11/02 15:36:29;;;;;;;29.90;21.02;;;;;;;;;;4956436;28;20043;-79
2021/11/02 15:39:00;;;;;;;30.48;19.90;;;;;;;;;;4973347;28;20035;-78
2021/11/02 15:41:26;;;;;;;29.45;19.75;;;;;;;;;;4969643;28;20050;-77
2021/11/02 15:44:04;;;;;;;27.13;20.70;;;;;;;;;;4956834;28;20133;-78
2021/11/02 15:46:38;;;;;;;39.10;24.70;;;;;;;;;;4957101;28;20058;-79
2021/11/02 15:49:06;;;;;;;34.85;21.80;;;;;;;;;;4957025;28;20500;-77
2021/11/02 15:54:54;;;;;;;30.73;21.77;;;;;;;;;;4972895;28;20057;-77
2021/11/02 15:57:21;;;;;;;30.75;22.88;;;;;;;;;;4971610;28;20043;-77
2021/11/02 16:00:00;;;;;;;40.47;22.83;;;;;;;;;;4974044;28;20062;-77
2021/11/02 16:03:15;;;;;;;28.50;21.10;;;;;;;;;;4973007;28;20070;-78
2021/11/02 16:05:43;;;;;;;28.80;18.88;;;;;;;;;;4970221;28;20058;-75
2021/11/02 16:08:19;;;;;;;24.98;18.45;;;;;;;;;;4972701;28;20074;-66
2021/11/02 16:10:46;;;;;;;20.70;14.93;;;;;;;;;;4956471;28;20066;-79
2021/11/02 16:13:46;;;;;;;16.60;12.68;;;;;;;;;;4957373;28;20097;-79
2021/11/02 16:16:12;;;;;;;20.02;13.25;;;;;;;;;;4954104;28;20053;-80
2021/11/02 16:18:38;;;;;;;18.27;14.02;;;;;;;;;;4960608;28;20042;-81
2021/11/02 16:24:25;;;;;;;17.98;12.05;;;;;;;;;;4994471;28;20050;-80
2021/11/02 16:26:51;;;;;;;20.42;13.55;;;;;;;;;;4993343;28;20412;-80
2021/11/02 16:29:18;;;;;;;21.33;12.00;;;;;;;;;;4993054;28;20070;-81
2021/11/02 16:31:48;;;;;;;16.77;11.05;;;;;;;;;;4977353;28;20499;-83
2021/11/02 16:34:23;;;;;;;18.58;13.43;;;;;;;;;;4976431;28;20089;-82
2021/11/02 16:36:50;;;;;;;17.73;11.63;;;;;;;;;;4977334;28;20038;-82
2021/11/02 16:39:21;;;;;;;20.55;13.68;;;;;;;;;;4976560;28;20438;-82
2021/11/02 16:41:50;;;;;;;16.90;11.10;;;;;;;;;;4973853;28;20038;-81
2021/11/02 16:44:35;;;;;;;18.13;12.93;;;;;;;;;;4979187;28;20052;-81
2021/11/02 16:47:07;;;;;;;17.30;13.23;;;;;;;;;;4978333;28;20042;-82
2021/11/02 16:49:34;;;;;;;17.67;10.90;;;;;;;;;;4977773;28;20046;-82
2021/11/02 16:52:04;;;;;;;21.95;14.73;;;;;;;;;;4993824;28;20034;-83
2021/11/02 16:54:38;;;;;;;22.00;15.32;;;;;;;;;;4993735;28;20042;-83
2021/11/02 16:57:19;;;;;;;23.05;14.93;;;;;;;;;;4975168;28;20050;-82
2021/11/02 17:00:05;;;;;;;26.80;16.75;;;;;;;;;;4991015;28;20149;-81
2021/11/02 17:02:37;;;;;;;24.92;12.55;;;;;;;;;;4973737;28;20078;-81
2021/11/02 17:05:21;;;;;;;25.00;16.77;;;;;;;;;;4974244;28;20042;-81
2021/11/02 17:08:05;;;;;;;22.02;11.70;;;;;;;;;;4991178;28;20038;-82
2021/11/02 17:10:35;;;;;;;26.70;16.45;;;;;;;;;;4974999;28;20055;-81
2021/11/02 17:13:12;;;;;;;25.85;15.20;;;;;;;;;;4975420;28;20538;-81
2021/11/02 17:15:44;;;;;;;26.27;15.23;;;;;;;;;;4966156;28;20042;-83
2021/11/02 17:18:13;;;;;;;21.10;14.98;;;;;;;;;;4973454;28;20062;-84
2021/11/02 17:20:38;;;;;;;22.30;15.25;;;;;;;;;;4976517;28;20050;-83
2021/11/02 17:37:30;;;;;;;13.45;11.15;;;;;;;;;;4990404;28;20388;-83
2021/11/02 17:39:58;;;;;;;21.23;14.40;;;;;;;;;;4975587;28;20054;-84
2021/11/02 17:42:25;;;;;;;26.13;15.95;;;;;;;;;;4975104;28;20038;-81
2021/11/02 17:44:51;;;;;;;30.65;18.60;;;;;;;;;;4975001;28;20424;-83
2021/11/02 17:47:18;;;;;;;27.27;17.40;;;;;;;;;;4996812;28;20089;-84
2021/11/02 17:49:45;;;;;;;22.25;15.18;;;;;;;;;;4977221;28;20714;-83
2021/11/02 17:56:13;;;;;;;14.15;10.40;;;;;;;;;;4994286;28;20462;-84
2021/11/02 17:58:43;;;;;;;24.60;15.55;;;;;;;;;;4992821;28;20072;-82
2021/11/02 18:02:01;;;;;;;22.45;16.05;;;;;;;;;;4976732;28;20042;-73
2021/11/02 18:04:31;;;;;;;23.95;15.80;;;;;;;;;;4991583;28;20496;-82
2021/11/02 18:06:57;;;;;;;21.67;15.32;;;;;;;;;;4974960;28;20048;-80
2021/11/02 18:09:23;;;;;;;25.60;18.13;;;;;;;;;;4974906;28;20415;-81
2021/11/02 18:22:47;;;;;;;27.48;17.88;;;;;;;;;;4992655;28;20045;-81
2021/11/02 18:25:20;;;;;;;23.30;14.45;;;;;;;;;;4987502;28;20057;-81
2021/11/02 18:27:46;;;;;;;17.63;12.18;;;;;;;;;;4990075;28;20455;-83
2021/11/02 18:30:14;;;;;;;35.28;21.25;;;;;;;;;;4989683;28;20046;-82
2021/11/02 18:32:40;;;;;;;23.05;16.23;;;;;;;;;;4989606;28;20044;-81
2021/11/02 18:35:08;;;;;;;25.15;16.17;;;;;;;;;;4972810;28;20121;-80
2021/11/02 18:37:35;;;;;;;26.80;18.92;;;;;;;;;;4973448;28;20050;-81
2021/11/02 18:40:01;;;;;;;28.08;18.17;;;;;;;;;;4990906;28;20074;-82
2021/11/02 18:46:08;;;;;;;18.50;14.23;;;;;;;;;;4993982;28;20104;-81
2021/11/02 18:48:35;;;;;;;18.17;13.52;;;;;;;;;;4992625;28;20046;-81
2021/11/02 18:55:09;;;;;;;21.98;13.13;;;;;;;;;;4996533;28;20073;-81
2021/11/02 18:57:39;;;;;;;27.65;17.48;;;;;;;;;;4976141;28;20567;-81
2021/11/02 19:00:07;;;;;;;26.75;20.02;;;;;;;;;;4976698;28;20646;-81
2021/11/02 19:02:33;;;;;;;27.58;19.02;;;;;;;;;;4993235;28;20042;-82
2021/11/02 19:04:59;;;;;;;23.65;17.05;;;;;;;;;;4993359;28;20101;-81
2021/11/02 19:30:52;;;;;;;17.10;12.23;;;;;;;;;;4996080;28;20073;-81
2021/11/02 19:33:18;;;;;;;21.02;13.40;;;;;;;;;;4995514;28;20042;-80
2021/11/02 19:35:47;;;;;;;18.95;14.20;;;;;;;;;;4997108;28;20136;-83
2021/11/02 19:38:14;;;;;;;22.65;13.60;;;;;;;;;;4996032;28;20530;-82
2021/11/02 19:40:42;;;;;;;22.60;16.08;;;;;;;;;;5003663;28;20046;-82
2021/11/02 19:43:10;;;;;;;24.90;15.10;;;;;;;;;;5012816;28;20042;-82
2021/11/02 19:45:35;;;;;;;23.30;15.65;;;;;;;;;;5005943;28;20079;-82
2021/11/02 19:48:01;;;;;;;28.35;17.92;;;;;;;;;;5006883;28;20046;-82
2021/11/02 19:50:27;;;;;;;22.83;15.05;;;;;;;;;;4995581;28;20201;-80
2021/11/02 19:52:55;;;;;;;25.58;19.05;;;;;;;;;;4993381;28;20534;-81
2021/11/02 19:55:25;;;;;;;30.98;16.60;;;;;;;;;;4992927;28;20053;-78
2021/11/02 19:57:52;;;;;;;20.73;14.25;;;;;;;;;;4992898;28;20100;-81
2021/11/02 20:00:21;;;;;;;21.65;13.10;;;;;;;;;;4993478;28;20042;-81
2021/11/02 20:02:47;;;;;;;23.60;14.73;;;;;;;;;;4993017;28;20042;-79
2021/11/02 20:05:13;;;;;;;21.10;14.25;;;;;;;;;;4993630;28;20097;-79
2021/11/02 20:07:48;;;;;;;27.38;14.82;;;;;;;;;;4992033;28;20093;-81
2021/11/02 20:10:16;;;;;;;30.42;19.15;;;;;;;;;;4994115;28;20046;-80
2021/11/02 20:19:50;;;;;;;24.15;15.25;;;;;;;;;;5003297;28;20049;-80
2021/11/02 20:36:03;;;;;;;21.33;11.57;;;;;;;;;;4995526;28;20108;-81
2021/11/02 20:38:34;;;;;;;20.52;12.10;;;;;;;;;;4996126;28;20078;-80
2021/11/02 20:44:29;;;;;;;26.25;16.52;;;;;;;;;;4995738;28;20060;-80
2021/11/02 20:47:01;;;;;;;29.13;16.33;;;;;;;;;;4992254;28;20065;-81
2021/11/02 20:49:30;;;;;;;32.53;18.88;;;;;;;;;;4988631;28;20038;-80
2021/11/02 21:02:01;;;;;;;19.92;12.90;;;;;;;;;;4992886;28;20100;-81
2021/11/02 21:04:26;;;;;;;20.95;14.13;;;;;;;;;;4995039;28;20074;-80
2021/11/02 21:06:53;;;;;;;18.30;14.00;;;;;;;;;;4993605;28;20038;-82
2021/11/02 21:09:31;;;;;;;28.65;18.58;;;;;;;;;;4991892;28;20050;-80
2021/11/02 21:11:58;;;;;;;19.75;12.25;;;;;;;;;;4972781;28;20057;-81
2021/11/02 21:14:25;;;;;;;24.42;14.50;;;;;;;;;;4993479;28;20050;-82
2021/11/02 21:16:51;;;;;;;20.10;13.95;;;;;;;;;;4993032;28;20504;-82
2021/11/02 21:19:22;;;;;;;16.42;12.75;;;;;;;;;;4993069;28;20044;-80
2021/11/02 21:21:48;;;;;;;16.38;11.82;;;;;;;;;;4993267;28;20038;-81
2021/11/02 21:24:14;;;;;;;17.40;12.00;;;;;;;;;;4975315;28;20046;-83
2021/11/02 21:26:41;;;;;;;26.05;17.90;;;;;;;;;;4993464;28;20559;-82
2021/11/02 21:29:07;;;;;;;24.45;17.30;;;;;;;;;;4994066;28;20045;-81
2021/11/02 21:31:32;;;;;;;22.63;14.32;;;;;;;;;;4994624;28;20038;-82
2021/11/02 21:33:59;;;;;;;28.05;17.05;;;;;;;;;;4997862;28;20075;-82
2021/11/02 21:36:27;;;;;;;27.20;14.27;;;;;;;;;;4979877;28;20084;-84
2021/11/02 21:38:54;;;;;;;18.67;11.93;;;;;;;;;;4996798;28;20064;-82
2021/11/02 22:10:43;;;;;;;24.20;11.63;;;;;;;;;;4992692;28;20595;-82
2021/11/02 22:13:11;;;;;;;29.02;17.08;;;;;;;;;;4971043;28;20050;-81
2021/11/02 22:15:36;;;;;;;16.23;11.13;;;;;;;;;;4971805;28;20066;-82
2021/11/02 22:18:04;;;;;;;17.10;11.80;;;;;;;;;;4970892;28;20077;-81
2021/11/02 22:20:30;;;;;;;17.90;11.40;;;;;;;;;;4990999;28;20038;-81
2021/11/02 23:02:24;;;;;;;22.40;14.55;;;;;;;;;;4986791;28;20585;-80
2021/11/02 23:04:49;;;;;;;18.38;11.73;;;;;;;;;;4991584;28;20054;-81
2021/11/02 23:07:15;;;;;;;21.10;13.35;;;;;;;;;;4976146;28;20121;-83
2021/11/02 23:35:48;;;;;;;16.10;9.95;;;;;;;;;;5013436;28;20139;-80
2021/11/02 23:38:16;;;;;;;23.15;12.38;;;;;;;;;;5015127;28;20697;-82
2021/11/02 23:40:48;;;;;;;15.45;10.05;;;;;;;;;;5017061;28;20050;-81
